createdAt,value
2023-03-17T00:00:44.495Z,22.20
2023-03-17T00:03:20.570Z,25.50
2023-03-17T00:05:50.459Z,23.60
2023-03-17T00:08:23.222Z,24.00
2023-03-17T00:10:52.539Z,25.20
2023-03-17T00:13:23.553Z,25.40
2023-03-17T00:15:56.559Z,25.70
2023-03-17T00:18:25.913Z,26.40
2023-03-17T00:20:54.937Z,25.90
2023-03-17T00:23:25.144Z,23.90
2023-03-17T00:25:54.182Z,24.00
2023-03-17T00:28:25.382Z,23.90
2023-03-17T00:30:57.464Z,23.90
2023-03-17T00:33:28.877Z,23.90
2023-03-17T00:35:59.650Z,24.50
2023-03-17T00:38:29.332Z,24.00
2023-03-17T00:40:58.290Z,23.50
2023-03-17T00:43:29.741Z,22.10
2023-03-17T00:45:59.675Z,22.00
2023-03-17T00:48:30.626Z,23.70
2023-03-17T00:50:59.838Z,24.80
2023-03-17T00:53:30.224Z,24.80
2023-03-17T00:55:59.415Z,25.40
2023-03-17T00:58:30.880Z,25.50
2023-03-17T01:01:00.544Z,24.30
2023-03-17T01:03:30.705Z,27.50
2023-03-17T01:06:00.134Z,27.20
2023-03-17T01:08:30.260Z,25.80
2023-03-17T01:11:00.128Z,24.60
2023-03-17T01:13:29.518Z,24.40
2023-03-17T01:15:58.633Z,25.90
2023-03-17T01:18:27.761Z,24.80
2023-03-17T01:20:56.944Z,22.90
2023-03-17T01:23:26.112Z,21.70
2023-03-17T01:25:55.916Z,24.10
2023-03-17T01:28:25.209Z,23.20
2023-03-17T01:30:54.120Z,22.20
2023-03-17T01:33:23.289Z,23.50
2023-03-17T01:35:52.571Z,22.90
2023-03-17T01:38:23.480Z,23.70
2023-03-17T01:40:54.432Z,22.80
2023-03-17T01:43:26.586Z,21.20
2023-03-17T01:46:28.900Z,21.50
2023-03-17T01:49:05.864Z,19.70
2023-03-17T01:51:40.703Z,22.30
2023-03-17T01:56:43.028Z,22.50
2023-03-17T01:59:17.539Z,20.70
2023-03-17T02:01:50.722Z,23.90
2023-03-17T02:04:21.518Z,22.00
2023-03-17T02:06:57.844Z,20.50
2023-03-17T02:09:28.856Z,22.40
2023-03-17T02:12:00.620Z,20.20
2023-03-17T02:14:29.876Z,21.10
2023-03-17T02:16:59.175Z,21.10
2023-03-17T02:19:30.860Z,21.80
2023-03-17T02:22:00.951Z,22.00
2023-03-17T02:24:36.829Z,21.40
2023-03-17T02:27:12.630Z,21.20
2023-03-17T02:29:41.923Z,23.00
2023-03-17T02:32:14.333Z,20.80
2023-03-17T02:34:43.377Z,21.10
2023-03-17T02:37:15.052Z,21.60
2023-03-17T02:39:43.912Z,19.60
2023-03-17T02:42:15.712Z,20.50
2023-03-17T02:44:44.661Z,20.40
2023-03-17T02:47:17.073Z,20.00
2023-03-17T02:49:46.183Z,20.30
2023-03-17T02:52:15.218Z,20.30
2023-03-17T02:54:44.148Z,19.30
2023-03-17T02:57:13.247Z,19.90
2023-03-17T02:59:43.469Z,19.50
2023-03-17T03:02:12.581Z,18.70
2023-03-17T03:04:42.800Z,19.60
2023-03-17T03:07:12.373Z,22.50
2023-03-17T03:09:41.793Z,19.60
2023-03-17T03:12:11.449Z,20.30
2023-03-17T03:14:40.782Z,20.00
2023-03-17T03:17:10.285Z,21.50
2023-03-17T03:19:39.576Z,19.80
2023-03-17T03:22:08.718Z,18.90
2023-03-17T03:24:38.028Z,20.60
2023-03-17T03:27:07.161Z,21.20
2023-03-17T03:29:36.073Z,21.20
2023-03-17T03:32:06.267Z,21.10
2023-03-17T03:34:35.151Z,20.60
2023-03-17T03:37:04.124Z,22.70
2023-03-17T03:39:33.043Z,21.50
2023-03-17T03:42:01.960Z,22.30
2023-03-17T03:44:30.890Z,22.50
2023-03-17T03:46:59.741Z,21.50
2023-03-17T03:49:28.623Z,20.90
2023-03-17T03:51:58.284Z,21.40
2023-03-17T03:54:27.318Z,21.00
2023-03-17T03:56:56.231Z,20.10
2023-03-17T03:59:25.154Z,20.90
2023-03-17T04:01:54.072Z,20.10
2023-03-17T04:04:23.363Z,20.30
2023-03-17T04:07:05.673Z,18.70
2023-03-17T04:09:35.238Z,20.30
2023-03-17T04:12:08.640Z,21.80
2023-03-17T04:14:49.089Z,20.30
2023-03-17T04:17:34.901Z,21.20
2023-03-17T04:20:04.342Z,23.60
2023-03-17T04:22:33.417Z,23.40
2023-03-17T04:25:02.369Z,25.20
2023-03-17T04:35:00.508Z,24.50
2023-03-17T04:37:29.669Z,25.20
2023-03-17T04:39:58.667Z,23.00
2023-03-17T04:42:27.650Z,22.80
2023-03-17T04:44:56.747Z,22.30
2023-03-17T04:47:25.747Z,21.70
2023-03-17T04:49:54.911Z,23.30
2023-03-17T04:52:24.097Z,24.10
2023-03-17T04:54:53.266Z,22.40
2023-03-17T04:57:23.923Z,23.40
2023-03-17T04:59:55.282Z,22.90
2023-03-17T05:02:28.715Z,26.60
2023-03-17T05:04:57.859Z,27.80
2023-03-17T05:07:26.871Z,27.00
2023-03-17T05:09:56.742Z,26.00
2023-03-17T05:12:25.756Z,24.90
2023-03-17T05:14:54.623Z,26.00
2023-03-17T05:17:23.488Z,25.40
2023-03-17T05:19:52.413Z,25.90
2023-03-17T05:25:08.451Z,28.10
2023-03-17T05:27:37.613Z,26.70
2023-03-17T05:30:08.926Z,25.90
2023-03-17T05:32:38.056Z,22.80
2023-03-17T05:35:09.164Z,23.90
2023-03-17T05:37:38.574Z,23.30
2023-03-17T05:40:09.113Z,23.60
2023-03-17T05:42:38.567Z,22.80
2023-03-17T05:45:09.801Z,24.70
2023-03-17T05:47:38.899Z,24.50
2023-03-17T05:50:10.711Z,23.40
2023-03-17T05:52:40.053Z,22.00
2023-03-17T05:55:11.375Z,22.80
2023-03-17T05:57:42.645Z,22.60
2023-03-17T06:00:18.530Z,21.70
2023-03-17T06:02:47.649Z,20.90
2023-03-17T06:05:18.278Z,19.40
2023-03-17T06:07:54.813Z,17.80
2023-03-17T06:10:25.448Z,16.30
2023-03-17T06:12:55.289Z,17.30
2023-03-17T06:15:26.161Z,17.00
2023-03-17T06:17:55.151Z,15.40
2023-03-17T06:20:40.304Z,15.50
2023-03-17T06:23:09.385Z,15.70
2023-03-17T06:25:40.564Z,16.20
2023-03-17T06:28:09.974Z,15.50
2023-03-17T06:30:40.737Z,15.00
2023-03-17T06:33:10.657Z,15.90
2023-03-17T06:35:40.212Z,16.50
2023-03-17T06:38:09.185Z,16.30
2023-03-17T06:40:38.258Z,15.10
2023-03-17T06:43:07.933Z,13.90
2023-03-17T06:45:37.370Z,13.80
2023-03-17T06:48:07.485Z,13.70
2023-03-17T06:50:36.698Z,12.70
2023-03-17T06:53:06.760Z,12.70
2023-03-17T06:55:35.869Z,11.70
2023-03-17T06:58:04.823Z,11.40
2023-03-17T07:00:33.830Z,11.10
2023-03-17T07:03:04.420Z,10.20
2023-03-17T07:05:33.872Z,9.70
2023-03-17T07:08:03.177Z,9.20
2023-03-17T07:10:33.009Z,8.70
2023-03-17T07:13:02.555Z,9.80
2023-03-17T07:15:34.541Z,10.20
2023-03-17T07:18:03.988Z,8.70
2023-03-17T07:20:33.149Z,9.40
2023-03-17T07:23:08.854Z,9.30
2023-03-17T07:25:39.304Z,8.30
2023-03-17T07:28:08.412Z,9.90
2023-03-17T07:30:40.887Z,9.30
2023-03-17T07:33:11.225Z,9.90
2023-03-17T07:35:40.666Z,9.00
2023-03-17T07:38:09.589Z,9.00
2023-03-17T07:40:38.761Z,8.60
2023-03-17T07:43:07.881Z,7.90
2023-03-17T07:45:36.974Z,9.10
2023-03-17T07:48:08.334Z,9.00
2023-03-17T07:50:38.190Z,8.00
2023-03-17T07:53:07.415Z,8.00
2023-03-17T07:55:38.632Z,8.00
2023-03-17T07:58:08.943Z,7.50
2023-03-17T08:00:38.058Z,7.80
2023-03-17T08:03:10.779Z,7.90
2023-03-17T08:05:40.719Z,8.60
2023-03-17T08:08:10.259Z,7.80
2023-03-17T08:10:39.903Z,8.30
2023-03-17T08:13:10.130Z,8.50
2023-03-17T08:15:39.269Z,7.50
2023-03-17T08:18:08.808Z,7.90
2023-03-17T08:20:38.810Z,6.60
2023-03-17T08:23:08.254Z,7.00
2023-03-17T08:25:37.265Z,7.70
2023-03-17T08:28:06.555Z,7.60
2023-03-17T08:30:36.054Z,6.90
2023-03-17T08:33:05.774Z,6.90
2023-03-17T08:35:35.076Z,7.40
2023-03-17T08:38:04.730Z,6.20
2023-03-17T08:40:34.484Z,7.00
2023-03-17T08:43:04.531Z,6.30
2023-03-17T08:45:33.753Z,7.10
2023-03-17T08:48:04.119Z,8.30
2023-03-17T08:50:34.010Z,6.80
2023-03-17T08:53:03.906Z,7.60
2023-03-17T08:55:33.008Z,7.30
2023-03-17T08:58:02.316Z,7.30
2023-03-17T09:00:31.585Z,6.00
2023-03-17T09:03:01.150Z,6.40
2023-03-17T09:05:31.280Z,6.60
2023-03-17T09:08:00.735Z,7.60
2023-03-17T09:10:30.312Z,6.50
2023-03-17T09:13:03.578Z,7.20
2023-03-17T09:15:34.332Z,9.10
2023-03-17T09:18:04.270Z,7.20
2023-03-17T09:20:33.963Z,6.50
2023-03-17T09:23:09.975Z,7.10
2023-03-17T09:25:42.063Z,6.20
2023-03-17T09:28:12.976Z,6.60
2023-03-17T09:30:44.811Z,5.50
2023-03-17T09:33:15.482Z,6.30
2023-03-17T09:35:45.075Z,5.30
2023-03-17T09:38:14.227Z,6.10
2023-03-17T09:40:49.673Z,7.60
2023-03-17T09:43:32.019Z,7.60
2023-03-17T09:46:16.864Z,6.40
2023-03-17T09:48:58.817Z,7.80
2023-03-17T09:51:32.397Z,6.40
2023-03-17T09:54:04.177Z,5.50
2023-03-17T09:56:36.774Z,6.00
2023-03-17T09:59:15.998Z,6.30
2023-03-17T10:01:45.319Z,5.00
2023-03-17T10:04:17.530Z,5.40
2023-03-17T10:06:50.367Z,6.50
2023-03-17T10:09:27.049Z,5.20
2023-03-17T10:12:03.902Z,5.30
2023-03-17T10:14:54.759Z,5.00
2023-03-17T10:17:26.542Z,4.30
2023-03-17T10:20:01.219Z,4.30
2023-03-17T10:22:37.568Z,4.50
2023-03-17T10:25:14.377Z,4.20
2023-03-17T10:27:48.095Z,4.70
2023-03-17T10:30:19.274Z,4.30
2023-03-17T10:32:51.469Z,4.50
2023-03-17T10:35:24.176Z,3.90
2023-03-17T10:38:04.435Z,5.00
2023-03-17T10:40:41.223Z,5.00
2023-03-17T10:43:20.139Z,5.00
2023-03-17T10:45:59.060Z,3.70
2023-03-17T10:48:29.628Z,3.60
2023-03-17T10:50:59.972Z,3.90
2023-03-17T10:53:37.509Z,3.70
2023-03-17T10:56:11.575Z,3.40
2023-03-17T10:58:46.507Z,3.70
2023-03-17T11:01:21.908Z,3.60
2023-03-17T11:03:51.407Z,2.80
2023-03-17T11:06:31.160Z,3.30
2023-03-17T11:09:09.851Z,3.20
2023-03-17T11:11:46.365Z,3.00
2023-03-17T11:14:18.215Z,2.70
2023-03-17T11:16:54.301Z,3.60
2023-03-17T11:19:31.958Z,3.00
2023-03-17T11:22:10.330Z,3.00
2023-03-17T11:24:46.263Z,3.20
2023-03-17T11:27:25.116Z,3.20
2023-03-17T11:30:14.910Z,2.80
2023-03-17T11:32:55.044Z,3.30
2023-03-17T11:35:35.509Z,3.30
2023-03-17T11:38:19.521Z,2.60
2023-03-17T11:41:16.848Z,2.70
2023-03-17T11:44:13.414Z,3.00
2023-03-17T11:46:48.814Z,2.90
2023-03-17T11:49:22.503Z,2.80
2023-03-17T11:52:01.119Z,3.20
2023-03-17T11:54:43.765Z,2.90
2023-03-17T11:57:18.633Z,4.40
2023-03-17T12:02:23.514Z,2.60
2023-03-17T12:04:56.954Z,2.70
2023-03-17T12:07:30.452Z,3.20
2023-03-17T12:10:08.541Z,2.90
2023-03-17T12:12:44.556Z,3.00
2023-03-17T12:15:20.695Z,3.00
2023-03-17T12:17:58.599Z,3.10
2023-03-17T12:20:35.398Z,3.10
2023-03-17T12:23:12.430Z,3.30
2023-03-17T12:25:50.866Z,2.70
2023-03-17T12:28:24.672Z,3.00
2023-03-17T12:31:00.085Z,3.00
2023-03-17T12:33:36.954Z,3.70
2023-03-17T12:36:08.589Z,3.60
2023-03-17T12:38:41.238Z,2.80
2023-03-17T12:41:34.112Z,2.90
2023-03-17T12:44:08.302Z,2.90
2023-03-17T12:47:02.297Z,2.90
2023-03-17T12:50:10.712Z,3.00
2023-03-17T12:53:02.390Z,2.90
2023-03-17T12:55:35.731Z,2.70
2023-03-17T12:58:07.691Z,3.00
2023-03-17T13:00:50.558Z,3.10
2023-03-17T13:03:25.268Z,2.90
2023-03-17T13:08:30.475Z,3.10
2023-03-17T13:11:27.077Z,4.20
2023-03-17T13:14:15.875Z,2.90
2023-03-17T13:16:49.312Z,3.10
2023-03-17T13:19:33.532Z,3.00
2023-03-17T13:22:34.959Z,2.50
2023-03-17T13:25:30.164Z,2.60
2023-03-17T13:28:22.692Z,2.90
2023-03-17T13:31:09.206Z,3.40
2023-03-17T13:33:44.542Z,3.10
2023-03-17T13:36:37.672Z,3.20
2023-03-17T13:39:52.380Z,3.60
2023-03-17T13:42:43.611Z,3.40
2023-03-17T13:45:37.873Z,3.50
2023-03-17T13:48:32.696Z,3.50
2023-03-17T13:51:18.142Z,3.30
2023-03-17T13:53:53.832Z,3.10
2023-03-17T13:56:30.080Z,3.90
2023-03-17T13:59:08.749Z,3.80
2023-03-17T14:01:43.415Z,3.60
2023-03-17T14:07:18.379Z,3.20
2023-03-17T14:09:49.211Z,4.00
2023-03-17T14:12:23.176Z,3.60
2023-03-17T14:15:06.494Z,3.30
2023-03-17T14:17:52.717Z,3.50
2023-03-17T14:22:57.350Z,3.20
2023-03-17T14:25:31.201Z,3.40
2023-03-17T14:28:04.055Z,5.10
2023-03-17T14:30:34.592Z,4.10
2023-03-17T14:33:06.738Z,3.80
2023-03-17T14:35:39.350Z,4.60
2023-03-17T14:38:19.261Z,4.20
2023-03-17T14:40:49.029Z,4.50
2023-03-17T14:43:18.520Z,4.20
2023-03-17T14:45:52.457Z,4.20
2023-03-17T14:48:27.341Z,3.70
2023-03-17T14:51:08.202Z,3.80
2023-03-17T14:53:42.735Z,5.00
2023-03-17T14:56:12.426Z,4.90
2023-03-17T14:58:46.367Z,3.90
2023-03-17T15:01:20.567Z,4.80
2023-03-17T15:03:57.974Z,7.20
2023-03-17T15:06:29.660Z,7.60
2023-03-17T15:09:04.318Z,5.40
2023-03-17T15:11:41.951Z,5.70
2023-03-17T15:14:22.492Z,5.30
2023-03-17T15:16:53.330Z,5.60
2023-03-17T15:19:28.746Z,5.80
2023-03-17T15:22:00.243Z,6.00
2023-03-17T15:24:55.701Z,5.10
2023-03-17T15:27:30.398Z,6.40
2023-03-17T15:32:56.037Z,5.60
2023-03-17T15:35:27.467Z,5.80
2023-03-17T15:37:59.890Z,6.50
2023-03-17T15:40:29.688Z,6.80
2023-03-17T15:43:00.251Z,7.20
2023-03-17T15:45:29.306Z,6.60
2023-03-17T15:47:58.589Z,6.40
2023-03-17T15:50:31.034Z,7.90
2023-03-17T15:53:05.592Z,6.80
2023-03-17T15:59:51.903Z,6.40
2023-03-17T16:02:57.237Z,6.70
2023-03-17T16:05:32.797Z,8.20
2023-03-17T16:08:04.811Z,7.00
2023-03-17T16:11:08.009Z,6.40
2023-03-17T16:14:10.739Z,7.40
2023-03-17T16:17:50.725Z,7.30
2023-03-17T16:20:05.630Z,10.50
2023-03-17T16:23:11.682Z,10.60
2023-03-17T16:25:59.278Z,7.10
2023-03-17T16:32:46.348Z,7.80
2023-03-17T16:36:15.704Z,10.00
2023-03-17T16:38:44.073Z,11.60
2023-03-17T16:46:16.474Z,11.80
2023-03-17T16:54:43.630Z,9.20
2023-03-17T16:57:19.391Z,9.80
2023-03-17T16:57:39.570Z,8.70
2023-03-17T16:57:50.871Z,12.00
2023-03-17T16:59:50.374Z,9.60
2023-03-17T17:02:27.068Z,10.00
2023-03-17T17:05:09.308Z,7.60
2023-03-17T17:07:56.073Z,9.70
2023-03-17T17:10:54.349Z,9.30
2023-03-17T17:23:15.706Z,6.00
2023-03-17T17:29:00.475Z,6.30
2023-03-17T17:32:35.457Z,6.40
2023-03-17T18:04:03.806Z,6.60
2023-03-17T18:38:55.454Z,7.40
2023-03-17T18:39:40.818Z,6.60
2023-03-17T18:41:45.234Z,7.50
2023-03-17T18:44:21.388Z,9.10
2023-03-17T18:50:35.269Z,8.50
2023-03-17T18:54:00.137Z,8.30
2023-03-17T18:56:43.317Z,7.70
2023-03-17T18:59:18.020Z,7.50
2023-03-17T19:02:00.931Z,8.40
2023-03-17T19:05:12.209Z,7.60
2023-03-17T19:08:06.990Z,7.90
2023-03-17T19:10:57.059Z,8.50
2023-03-17T19:13:29.783Z,8.50
2023-03-17T19:31:48.698Z,7.60
2023-03-17T19:35:15.559Z,7.60
2023-03-17T19:45:23.146Z,7.90
2023-03-17T19:47:38.337Z,7.80
2023-03-17T19:47:55.064Z,8.00
2023-03-17T19:50:30.930Z,8.00
2023-03-17T19:53:06.664Z,9.20
2023-03-17T19:55:43.925Z,7.70
2023-03-17T19:58:21.970Z,7.90
2023-03-17T20:00:56.703Z,7.50
2023-03-17T20:03:38.007Z,7.60
2023-03-17T20:06:11.160Z,7.80
2023-03-17T20:08:45.574Z,6.90
2023-03-17T20:11:23.997Z,8.20
2023-03-17T20:13:56.569Z,7.80
2023-03-17T20:16:27.654Z,9.00
2023-03-17T20:18:59.328Z,8.70
2023-03-17T20:21:42.271Z,7.00
2023-03-17T20:24:15.012Z,7.90
2023-03-17T20:26:48.861Z,7.20
2023-03-17T20:29:26.820Z,7.30
2023-03-17T20:32:01.138Z,8.20
2023-03-17T20:34:31.529Z,7.70
2023-03-17T20:37:04.291Z,7.60
2023-03-17T20:39:44.873Z,7.30
2023-03-17T20:42:17.561Z,8.10
2023-03-17T20:44:52.896Z,6.90
2023-03-17T20:47:25.932Z,7.90
2023-03-17T20:49:58.536Z,7.80
2023-03-17T20:52:30.696Z,7.80
2023-03-17T20:55:02.562Z,8.00
2023-03-17T20:57:33.690Z,7.60
2023-03-17T21:00:08.282Z,8.40
2023-03-17T21:02:39.457Z,8.10
2023-03-17T21:05:13.006Z,7.80
2023-03-17T21:07:46.853Z,7.90
2023-03-17T21:10:21.661Z,7.30
2023-03-17T21:15:24.503Z,7.30
2023-03-17T21:17:54.929Z,7.90
2023-03-17T21:20:25.751Z,7.60
2023-03-17T21:22:55.804Z,7.90
2023-03-17T21:25:29.279Z,8.00
2023-03-17T21:28:00.156Z,7.80
2023-03-17T21:30:33.498Z,7.70
2023-03-17T21:33:03.852Z,8.70
2023-03-17T21:35:36.982Z,7.50
2023-03-17T21:38:08.589Z,8.70
2023-03-17T21:40:38.068Z,8.10
2023-03-17T21:43:08.730Z,8.00
2023-03-17T21:45:38.638Z,8.00
2023-03-17T21:48:25.632Z,8.40
2023-03-17T21:50:59.938Z,8.00
2023-03-17T21:53:31.942Z,7.90
2023-03-17T22:10:46.028Z,8.90
2023-03-17T22:13:14.921Z,8.60
2023-03-17T22:15:44.409Z,9.00
2023-03-17T22:18:13.955Z,8.50
2023-03-17T22:23:47.507Z,8.00
2023-03-17T22:26:19.546Z,9.90
2023-03-17T22:28:49.975Z,9.50
2023-03-17T22:32:00.165Z,8.40
2023-03-17T22:34:32.296Z,10.50
2023-03-17T22:37:02.571Z,9.70
2023-03-17T22:39:34.995Z,9.00
2023-03-17T22:42:04.194Z,9.80
2023-03-17T22:44:33.203Z,9.60
2023-03-17T22:47:02.312Z,8.40
2023-03-17T22:49:31.700Z,10.20
2023-03-17T22:52:00.628Z,8.50
2023-03-17T22:54:29.560Z,10.20
2023-03-17T22:57:14.106Z,9.00
2023-03-17T22:59:52.951Z,10.10
2023-03-17T23:02:21.920Z,7.80
2023-03-17T23:04:51.361Z,9.50
2023-03-17T23:07:20.644Z,9.40
2023-03-17T23:09:49.594Z,8.60
2023-03-17T23:12:22.568Z,8.70
2023-03-17T23:14:51.841Z,9.10
2023-03-17T23:17:20.752Z,9.00
2023-03-17T23:19:50.007Z,9.00
2023-03-17T23:22:20.535Z,9.10
2023-03-17T23:24:50.333Z,7.70
2023-03-17T23:27:19.178Z,8.70
2023-03-17T23:29:48.082Z,8.60
2023-03-17T23:32:17.210Z,8.80
2023-03-17T23:34:46.537Z,9.60
2023-03-17T23:37:16.009Z,9.30
2023-03-17T23:39:45.321Z,9.80
2023-03-17T23:42:43.438Z,7.80
2023-03-17T23:48:46.138Z,7.80
